Time;durP1;ratioP1;P1;durP2;ratioP2;P2;SDS_P1;SDS_P2;PMS_P1;PMS_P2;Temp;Humidity;BMP_temperature;BMP_pressure;BME280_temperature;BME280_humidity;BME280_pressure;Samples;Min_cycle;Max_cycle;Signal;HPM_P1;HPM_P2
2021/05/14 00:02:00;;;;;;;6.50;5.70;;;11.40;99.90;;;;;;5028765;28;20089;-80
2021/05/14 00:04:26;;;;;;;6.25;5.65;;;11.40;99.90;;;;;;5046647;28;20487;-80
2021/05/14 00:06:51;;;;;;;6.70;6.00;;;11.50;99.90;;;;;;5028168;28;20040;-80
2021/05/14 00:09:18;;;;;;;6.55;5.95;;;11.40;99.90;;;;;;5028681;28;20038;-80
2021/05/14 00:11:44;;;;;;;6.93;6.22;;;11.40;99.90;;;;;;5012092;28;20030;-80
2021/05/14 00:14:10;;;;;;;6.63;6.03;;;11.40;99.90;;;;;;5012240;28;20033;-80
2021/05/14 00:16:36;;;;;;;7.05;6.35;;;11.40;99.90;;;;;;5046117;28;20092;-80
2021/05/14 00:19:02;;;;;;;5.82;5.32;;;11.40;99.90;;;;;;5046380;28;20049;-80
2021/05/14 00:21:32;;;;;;;5.13;4.65;;;11.40;99.90;;;;;;5028608;28;20037;-80
2021/05/14 00:23:58;;;;;;;7.60;6.00;;;11.50;99.90;;;;;;5044871;28;20041;-80
2021/05/14 00:26:24;;;;;;;6.68;6.07;;;11.50;99.90;;;;;;5045924;28;20022;-80
2021/05/14 00:28:50;;;;;;;7.47;6.68;;;11.40;99.90;;;;;;5028339;28;20040;-80
2021/05/14 00:31:16;;;;;;;7.22;6.63;;;11.40;99.90;;;;;;5044891;28;20030;-80
2021/05/14 00:33:42;;;;;;;6.93;6.32;;;11.30;99.90;;;;;;5028299;28;20059;-80
2021/05/14 00:36:08;;;;;;;7.18;6.53;;;11.30;99.90;;;;;;5045561;28;20030;-80
2021/05/14 00:38:35;;;;;;;7.50;6.22;;;11.30;99.90;;;;;;5028142;28;20050;-80
2021/05/14 00:41:02;;;;;;;7.15;6.45;;;11.30;99.90;;;;;;5028166;28;20068;-80
2021/05/14 00:43:28;;;;;;;8.18;7.05;;;11.40;99.90;;;;;;5028086;28;20094;-80
2021/05/14 00:45:53;;;;;;;7.50;6.72;;;11.40;99.90;;;;;;5027873;28;20069;-81
2021/05/14 00:48:19;;;;;;;7.88;6.82;;;11.40;99.90;;;;;;5028044;28;20064;-80
2021/05/14 00:50:45;;;;;;;6.82;6.13;;;11.40;99.90;;;;;;5045678;28;20067;-80
2021/05/14 00:53:11;;;;;;;7.65;6.70;;;11.40;99.90;;;;;;5027985;28;20531;-80
2021/05/14 00:55:37;;;;;;;6.93;6.32;;;11.40;99.90;;;;;;5028074;28;20041;-80
2021/05/14 00:58:03;;;;;;;7.30;6.60;;;11.30;99.90;;;;;;5027841;28;20113;-80
2021/05/14 01:00:28;;;;;;;9.43;8.30;;;11.30;99.90;;;;;;5028027;28;20033;-80
2021/05/14 01:02:54;;;;;;;7.80;7.10;;;11.20;99.90;;;;;;5029358;28;20037;-80
2021/05/14 01:05:21;;;;;;;7.80;7.00;;;11.30;99.90;;;;;;5011730;28;20033;-80
2021/05/14 01:07:47;;;;;;;8.75;7.90;;;11.30;99.90;;;;;;5028203;28;20536;-80
2021/05/14 01:10:14;;;;;;;8.00;7.20;;;11.30;99.90;;;;;;5051605;28;20062;-81
2021/05/14 01:12:39;;;;;;;8.90;8.10;;;11.30;99.90;;;;;;5034368;28;20060;-80
2021/05/14 01:15:06;;;;;;;8.52;7.63;;;11.20;99.90;;;;;;5050849;28;20059;-81
2021/05/14 01:17:33;;;;;;;9.38;8.48;;;11.30;99.90;;;;;;5050583;28;20029;-80
2021/05/14 01:19:59;;;;;;;8.25;7.45;;;11.30;99.90;;;;;;5017821;28;20057;-80
2021/05/14 01:22:27;;;;;;;8.88;8.07;;;11.20;99.90;;;;;;5017646;28;20417;-80
2021/05/14 01:24:52;;;;;;;7.68;6.82;;;11.20;99.90;;;;;;5034286;28;20501;-80
2021/05/14 01:27:19;;;;;;;9.32;7.82;;;11.30;99.90;;;;;;5034145;28;20025;-80
2021/05/14 01:29:45;;;;;;;9.07;8.18;;;11.20;99.90;;;;;;5034244;28;20085;-80
2021/05/14 01:32:11;;;;;;;8.50;7.63;;;11.20;99.90;;;;;;5034172;28;20033;-81
2021/05/14 01:34:36;;;;;;;9.15;8.35;;;11.20;99.90;;;;;;5034215;28;20056;-80
2021/05/14 01:37:02;;;;;;;9.45;8.43;;;11.20;99.90;;;;;;5033646;28;20044;-81
2021/05/14 01:39:28;;;;;;;9.57;8.27;;;11.20;99.90;;;;;;5034179;28;20089;-81
2021/05/14 01:41:54;;;;;;;8.55;7.70;;;11.20;99.90;;;;;;5033975;28;20037;-80
2021/05/14 01:44:21;;;;;;;9.50;8.60;;;11.20;99.90;;;;;;5033903;28;20060;-80
2021/05/14 01:46:47;;;;;;;8.85;7.95;;;11.20;99.90;;;;;;5033953;28;20038;-80
2021/05/14 01:49:13;;;;;;;10.43;8.65;;;11.10;99.90;;;;;;5051840;28;20037;-80
2021/05/14 01:51:38;;;;;;;9.57;8.57;;;11.10;99.90;;;;;;5033985;28;20101;-80
2021/05/14 01:54:04;;;;;;;9.68;8.32;;;11.10;99.90;;;;;;5033865;28;20064;-80
2021/05/14 01:56:30;;;;;;;9.50;8.50;;;11.10;99.90;;;;;;5033833;28;20065;-80
2021/05/14 01:58:56;;;;;;;9.50;8.35;;;11.10;99.90;;;;;;5033929;28;20045;-80
2021/05/14 02:01:22;;;;;;;7.82;7.05;;;11.10;99.90;;;;;;5033832;28;20120;-80
2021/05/14 02:03:48;;;;;;;9.27;8.27;;;11.10;99.90;;;;;;5034129;28;20041;-80
2021/05/14 02:06:13;;;;;;;8.82;7.93;;;11.10;99.90;;;;;;5033392;28;20040;-79
2021/05/14 02:08:39;;;;;;;9.07;8.18;;;11.10;99.90;;;;;;5033739;28;20133;-81
2021/05/14 02:11:09;;;;;;;10.20;8.98;;;11.10;99.90;;;;;;5050315;28;20060;-80
2021/05/14 02:13:44;;;;;;;10.73;9.27;;;11.10;99.90;;;;;;5033891;28;20036;-80
2021/05/14 02:16:10;;;;;;;10.00;8.52;;;11.10;99.90;;;;;;5017294;28;20048;-80
2021/05/14 02:18:37;;;;;;;10.77;8.93;;;11.00;99.90;;;;;;5033734;28;20042;-80
2021/05/14 02:21:04;;;;;;;9.30;8.18;;;11.00;99.90;;;;;;5015174;28;20029;-81
2021/05/14 02:23:29;;;;;;;9.73;8.55;;;11.00;99.90;;;;;;5030592;28;20040;-80
2021/05/14 02:25:55;;;;;;;9.73;8.73;;;11.00;99.90;;;;;;5014024;28;20026;-80
2021/05/14 02:28:22;;;;;;;11.00;8.77;;;11.00;99.90;;;;;;5030595;28;20026;-81
2021/05/14 02:30:47;;;;;;;10.57;8.68;;;11.00;99.90;;;;;;5030339;28;20029;-80
2021/05/14 02:33:13;;;;;;;12.88;10.57;;;11.00;99.90;;;;;;5030473;28;20037;-80
2021/05/14 02:35:39;;;;;;;13.93;12.32;;;11.00;99.90;;;;;;5029979;28;20036;-80
2021/05/14 02:38:05;;;;;;;17.00;14.30;;;11.00;99.90;;;;;;5013815;28;20042;-80
2021/05/14 02:40:31;;;;;;;16.35;14.45;;;11.00;99.90;;;;;;5030312;28;20022;-80
2021/05/14 02:42:57;;;;;;;17.90;14.45;;;10.90;99.90;;;;;;5013944;28;20034;-80
2021/05/14 02:45:24;;;;;;;15.65;13.13;;;10.90;99.90;;;;;;5029965;28;20046;-80
2021/05/14 02:47:50;;;;;;;19.02;15.15;;;10.90;99.90;;;;;;5047930;28;20034;-79
2021/05/14 02:50:16;;;;;;;18.67;15.27;;;10.90;99.90;;;;;;5030133;28;20096;-81
2021/05/14 02:52:41;;;;;;;21.65;18.17;;;10.80;99.90;;;;;;5013597;28;20059;-80
2021/05/14 02:55:08;;;;;;;22.23;17.02;;;10.80;99.90;;;;;;5029905;28;20401;-81
2021/05/14 02:57:34;;;;;;;21.45;17.02;;;10.80;99.90;;;;;;5029995;28;20037;-81
2021/05/14 03:00:00;;;;;;;22.90;18.75;;;10.70;99.90;;;;;;5030004;28;20030;-80
2021/05/14 03:02:25;;;;;;;19.50;16.40;;;10.70;99.90;;;;;;5030155;28;20037;-79
2021/05/14 03:04:51;;;;;;;20.08;16.60;;;10.70;99.90;;;;;;5029761;28;20029;-80
2021/05/14 03:07:17;;;;;;;20.60;17.05;;;10.70;99.90;;;;;;5047227;28;20029;-80
2021/05/14 03:09:42;;;;;;;23.00;18.58;;;10.70;99.90;;;;;;5029692;28;20037;-80
2021/05/14 03:12:08;;;;;;;21.73;17.85;;;10.80;99.90;;;;;;5046298;28;20083;-79
2021/05/14 03:14:34;;;;;;;19.83;15.50;;;10.90;99.90;;;;;;5046137;28;20152;-79
2021/05/14 03:17:00;;;;;;;21.05;17.58;;;10.90;99.90;;;;;;5046075;28;20088;-80
2021/05/14 03:19:26;;;;;;;19.05;14.68;;;10.90;99.90;;;;;;5046169;28;20065;-79
2021/05/14 03:21:52;;;;;;;12.50;9.93;;;11.00;99.90;;;;;;5046106;28;20386;-80
2021/05/14 03:24:18;;;;;;;14.88;11.57;;;10.80;99.90;;;;;;5047246;28;20129;-80
2021/05/14 03:26:44;;;;;;;15.95;11.15;;;10.70;99.90;;;;;;5046998;28;20029;-80
2021/05/14 03:29:10;;;;;;;10.95;9.82;;;10.70;99.90;;;;;;5047420;28;20034;-80
2021/05/14 03:31:35;;;;;;;12.45;9.70;;;10.80;99.90;;;;;;5028739;28;20131;-80
2021/05/14 03:34:01;;;;;;;9.73;8.18;;;10.70;99.90;;;;;;5029481;28;20029;-80
2021/05/14 03:36:27;;;;;;;12.10;9.23;;;10.70;99.90;;;;;;5028911;28;20029;-80
2021/05/14 03:38:52;;;;;;;10.27;7.82;;;10.70;99.90;;;;;;5029121;28;20103;-80
2021/05/14 03:42:05;;;;;;;9.30;7.70;;;10.80;99.90;;;;;;5029140;28;20034;-80
2021/05/14 03:44:04;;;;;;;8.18;7.38;;;10.70;99.90;;;;;;5028539;28;20077;-80
2021/05/14 03:46:30;;;;;;;9.30;6.72;;;10.70;99.90;;;;;;5028959;28;20036;-80
2021/05/14 03:48:56;;;;;;;9.02;7.65;;;10.70;99.90;;;;;;5029032;28;20033;-79
2021/05/14 03:51:22;;;;;;;8.38;6.57;;;10.70;99.90;;;;;;5012506;28;20035;-80
2021/05/14 03:53:48;;;;;;;8.90;7.85;;;10.70;99.90;;;;;;5028983;28;20052;-80
2021/05/14 03:56:14;;;;;;;12.35;7.75;;;10.70;99.90;;;;;;5028662;28;20025;-80
2021/05/14 03:58:39;;;;;;;9.95;7.20;;;10.70;99.90;;;;;;5028912;28;20097;-80
2021/05/14 04:01:05;;;;;;;9.30;7.18;;;10.70;99.90;;;;;;5028846;28;20052;-80
2021/05/14 04:03:31;;;;;;;8.88;7.25;;;10.70;99.90;;;;;;5046630;28;20043;-80
2021/05/14 04:05:57;;;;;;;10.57;7.22;;;10.60;99.90;;;;;;5028435;28;20033;-80
2021/05/14 04:08:22;;;;;;;8.75;6.93;;;10.70;99.90;;;;;;5028257;28;20051;-80
2021/05/14 04:16:16;;;;;;;10.02;7.38;;;10.60;99.90;;;;;;5019805;28;20021;-80
2021/05/14 04:18:42;;;;;;;11.27;7.90;;;10.70;99.90;;;;;;5044255;28;20053;-80
2021/05/14 04:21:07;;;;;;;7.97;7.13;;;10.60;99.90;;;;;;5027648;28;20029;-80
2021/05/14 04:23:33;;;;;;;9.75;7.93;;;10.60;99.90;;;;;;5011580;28;20025;-79
2021/05/14 04:25:59;;;;;;;10.95;7.68;;;10.70;99.90;;;;;;5027371;28;20067;-80
2021/05/14 04:28:25;;;;;;;11.38;7.50;;;10.70;99.90;;;;;;5027846;28;20041;-79
2021/05/14 04:30:50;;;;;;;8.75;7.07;;;10.60;99.90;;;;;;5027650;28;20039;-80
2021/05/14 04:33:16;;;;;;;9.13;8.00;;;10.60;99.90;;;;;;5045580;28;20029;-80
2021/05/14 04:35:42;;;;;;;10.00;7.38;;;10.70;99.90;;;;;;5027324;28;20036;-79
2021/05/14 04:38:07;;;;;;;11.93;6.55;;;10.70;99.90;;;;;;5027613;28;20086;-80
2021/05/14 04:40:33;;;;;;;9.02;8.10;;;10.70;99.90;;;;;;5027504;28;20026;-80
2021/05/14 04:43:03;;;;;;;11.52;8.25;;;10.70;99.90;;;;;;5043382;28;20025;-80
2021/05/14 04:45:29;;;;;;;8.93;7.68;;;10.70;99.90;;;;;;5043342;28;20088;-79
2021/05/14 04:47:55;;;;;;;10.90;7.85;;;10.70;99.90;;;;;;5027244;28;20050;-80
2021/05/14 04:50:21;;;;;;;7.70;6.60;;;10.70;99.90;;;;;;5027853;28;20048;-79
2021/05/14 04:52:47;;;;;;;10.18;8.40;;;10.80;99.90;;;;;;5045122;28;20037;-80
2021/05/14 04:55:15;;;;;;;9.23;7.72;;;10.60;99.90;;;;;;5028210;28;20046;-79
2021/05/14 04:57:41;;;;;;;10.65;8.95;;;10.60;99.90;;;;;;5027427;28;20041;-80
2021/05/14 05:00:07;;;;;;;9.30;7.53;;;10.70;99.90;;;;;;5027380;28;20056;-80
2021/05/14 05:02:35;;;;;;;8.98;8.07;;;10.90;99.90;;;;;;5027149;28;20061;-80
2021/05/14 05:05:01;;;;;;;9.30;6.88;;;10.90;99.90;;;;;;5027279;28;20389;-80
2021/05/14 05:07:30;;;;;;;10.00;8.35;;;10.90;99.90;;;;;;5027015;28;20044;-80
2021/05/14 05:09:55;;;;;;;9.75;7.93;;;10.90;99.90;;;;;;5010737;28;20101;-80
2021/05/14 05:12:21;;;;;;;10.13;8.15;;;10.90;99.90;;;;;;5026955;28;20033;-80
2021/05/14 05:14:47;;;;;;;8.82;7.53;;;10.90;99.90;;;;;;5010771;28;20030;-80
2021/05/14 05:17:13;;;;;;;9.10;7.45;;;10.90;99.90;;;;;;5027038;28;20037;-80
2021/05/14 05:19:39;;;;;;;10.10;8.40;;;11.00;99.90;;;;;;5010730;28;20109;-80
2021/05/14 05:22:05;;;;;;;10.02;8.35;;;10.90;99.90;;;;;;5043460;28;20021;-80
2021/05/14 05:24:30;;;;;;;9.98;7.57;;;10.80;99.90;;;;;;5026991;28;20116;-80
2021/05/14 05:26:56;;;;;;;9.18;7.82;;;10.90;99.90;;;;;;5043053;28;20486;-80
2021/05/14 05:29:22;;;;;;;9.27;6.65;;;10.80;99.90;;;;;;5027185;28;20029;-80
2021/05/14 05:31:47;;;;;;;9.50;7.72;;;10.80;99.90;;;;;;5044681;28;20061;-79
2021/05/14 05:34:13;;;;;;;12.23;8.13;;;10.80;99.90;;;;;;5044932;28;20056;-79
2021/05/14 05:36:39;;;;;;;11.90;7.47;;;10.80;99.90;;;;;;5042983;28;20032;-80
2021/05/14 05:39:05;;;;;;;9.43;6.90;;;10.80;99.90;;;;;;5027032;28;20196;-79
2021/05/14 05:41:31;;;;;;;10.77;8.82;;;10.70;99.90;;;;;;5026546;28;20037;-80
2021/05/14 05:43:56;;;;;;;10.63;8.02;;;10.70;99.90;;;;;;5026669;28;20056;-80
2021/05/14 05:46:22;;;;;;;9.57;7.97;;;10.80;99.90;;;;;;5026436;28;20057;-80
2021/05/14 05:48:49;;;;;;;10.63;8.80;;;10.80;99.90;;;;;;5043490;28;20053;-80
2021/05/14 05:51:15;;;;;;;10.80;8.45;;;10.90;99.90;;;;;;5026944;28;20033;-80
2021/05/14 05:53:42;;;;;;;12.68;8.65;;;11.00;99.90;;;;;;5026707;28;20057;-80
2021/05/14 05:56:08;;;;;;;16.17;11.27;;;11.10;99.90;;;;;;5029420;28;20034;-79
2021/05/14 05:58:35;;;;;;;17.05;12.35;;;11.10;99.90;;;;;;5030207;28;20095;-80
2021/05/14 06:01:01;;;;;;;22.55;14.48;;;11.20;99.90;;;;;;5030355;28;20088;-80
2021/05/14 06:03:27;;;;;;;19.80;13.57;;;11.20;99.90;;;;;;5001512;28;20061;-80
2021/05/14 06:06:12;;;;;;;20.60;14.80;;;11.20;99.90;;;;;;5029113;28;20037;-79
2021/05/14 06:08:38;;;;;;;24.50;16.40;;;11.20;99.90;;;;;;4970302;28;20491;-80
2021/05/14 06:11:04;;;;;;;25.30;17.85;;;11.30;99.90;;;;;;4986521;28;20111;-80
2021/05/14 06:13:32;;;;;;;20.27;12.82;;;11.30;99.90;;;;;;4986336;28;20043;-79
2021/05/14 06:15:59;;;;;;;24.45;16.83;;;11.30;99.90;;;;;;4986413;28;20059;-80
2021/05/14 06:18:27;;;;;;;26.05;16.67;;;11.40;99.90;;;;;;4986313;28;20075;-80
2021/05/14 06:20:53;;;;;;;23.77;15.25;;;11.30;99.90;;;;;;4986572;28;20173;-80
2021/05/14 06:23:18;;;;;;;25.17;17.02;;;11.30;99.90;;;;;;4986359;28;20030;-80
2021/05/14 06:25:44;;;;;;;18.05;13.32;;;11.40;99.90;;;;;;5002783;28;20046;-80
2021/05/14 06:28:23;;;;;;;21.10;13.38;;;11.40;99.90;;;;;;4989468;28;20034;-79
2021/05/14 06:30:49;;;;;;;17.17;14.48;;;11.10;99.90;;;;;;5005837;28;20050;-79
2021/05/14 06:33:15;;;;;;;17.73;13.32;;;11.20;99.90;;;;;;4989382;28;20057;-79
2021/05/14 06:35:42;;;;;;;15.43;11.52;;;11.50;99.90;;;;;;5005380;28;20030;-79
2021/05/14 06:38:08;;;;;;;12.18;9.18;;;11.80;99.90;;;;;;4975674;28;20498;-80
2021/05/14 06:40:34;;;;;;;19.25;13.52;;;11.80;99.90;;;;;;4970703;28;20050;-79
2021/05/14 06:43:00;;;;;;;16.88;13.40;;;11.70;99.90;;;;;;4976373;28;20039;-80
2021/05/14 06:45:26;;;;;;;18.75;13.60;;;12.00;99.90;;;;;;4977449;28;20073;-80
2021/05/14 06:47:52;;;;;;;21.63;16.55;;;11.80;99.90;;;;;;5016151;28;20042;-80
2021/05/14 06:50:18;;;;;;;20.98;15.55;;;11.60;99.90;;;;;;5017657;28;20132;-79
2021/05/14 06:52:43;;;;;;;20.55;15.45;;;11.70;99.90;;;;;;5042193;28;20405;-80
2021/05/14 06:55:10;;;;;;;14.75;10.95;;;11.90;99.90;;;;;;5042357;28;20022;-80
2021/05/14 06:57:37;;;;;;;19.27;14.75;;;12.00;99.90;;;;;;5042239;28;20033;-80
2021/05/14 07:00:04;;;;;;;17.27;13.50;;;11.90;99.90;;;;;;5041850;28;20050;-80
2021/05/14 07:02:30;;;;;;;20.30;14.90;;;11.90;99.90;;;;;;5040656;28;20026;-79
2021/05/14 07:04:55;;;;;;;25.60;18.55;;;11.90;99.90;;;;;;5007424;28;20046;-80
2021/05/14 07:07:21;;;;;;;22.02;14.23;;;12.00;99.90;;;;;;5024201;28;20033;-79
2021/05/14 07:09:47;;;;;;;21.20;15.90;;;12.20;99.90;;;;;;5041914;28;20084;-80
2021/05/14 07:12:13;;;;;;;23.42;16.02;;;12.30;99.90;;;;;;5041923;28;20080;-80
2021/05/14 07:14:39;;;;;;;18.35;14.63;;;12.50;99.90;;;;;;5041619;28;20053;-80
2021/05/14 07:17:04;;;;;;;19.38;14.82;;;12.60;99.90;;;;;;5025385;28;20034;-80
2021/05/14 07:19:30;;;;;;;24.38;17.50;;;12.80;99.90;;;;;;5041894;28;20030;-80
2021/05/14 07:21:56;;;;;;;18.83;14.18;;;12.90;99.90;;;;;;5041604;28;20025;-80
2021/05/14 07:24:21;;;;;;;19.15;14.60;;;13.00;99.90;;;;;;5041466;28;20051;-80
2021/05/14 07:26:47;;;;;;;23.38;16.50;;;12.80;99.90;;;;;;5025339;28;20474;-80
2021/05/14 07:29:13;;;;;;;22.63;17.05;;;12.80;99.90;;;;;;5025080;28;20109;-80
2021/05/14 07:31:39;;;;;;;25.17;18.42;;;12.80;99.90;;;;;;5025052;28;20130;-80
2021/05/14 07:34:05;;;;;;;25.25;18.80;;;12.60;99.90;;;;;;5025157;28;20041;-80
2021/05/14 07:36:31;;;;;;;27.60;19.63;;;12.70;99.90;;;;;;5024597;28;20093;-80
2021/05/14 07:38:57;;;;;;;27.80;22.20;;;12.70;99.90;;;;;;5025037;28;20074;-80
2021/05/14 07:41:23;;;;;;;31.98;23.80;;;12.90;99.90;;;;;;5008432;28;20113;-79
2021/05/14 07:43:48;;;;;;;30.40;23.35;;;13.10;99.90;;;;;;5024763;28;20041;-80
2021/05/14 07:46:14;;;;;;;26.63;20.48;;;12.70;99.90;;;;;;5024672;28;20046;-80
2021/05/14 07:48:40;;;;;;;26.20;19.95;;;12.90;99.90;;;;;;5024888;28;20034;-79
2021/05/14 07:51:06;;;;;;;23.83;19.23;;;13.00;99.90;;;;;;5008115;28;20021;-80
2021/05/14 07:53:31;;;;;;;25.52;20.02;;;13.10;99.90;;;;;;5008522;28;20462;-80
2021/05/14 07:55:57;;;;;;;24.75;19.42;;;12.80;99.90;;;;;;5024166;28;20060;-80
2021/05/14 07:58:23;;;;;;;27.48;19.65;;;13.10;99.90;;;;;;5024943;28;20092;-80
2021/05/14 08:00:50;;;;;;;26.48;20.55;;;12.90;99.90;;;;;;5024439;28;20053;-79
2021/05/14 08:03:16;;;;;;;23.63;18.75;;;12.90;99.90;;;;;;5025975;28;20045;-80
2021/05/14 08:06:02;;;;;;;28.33;20.80;;;12.90;99.90;;;;;;5024090;28;20022;-79
2021/05/14 08:08:28;;;;;;;31.42;23.70;;;12.90;99.90;;;;;;4968152;28;20054;-79
2021/05/14 08:10:55;;;;;;;28.35;22.25;;;13.10;99.90;;;;;;4984360;28;20046;-79
2021/05/14 08:13:22;;;;;;;29.55;23.42;;;13.20;99.90;;;;;;4952092;28;20047;-80
2021/05/14 08:15:48;;;;;;;26.98;21.27;;;13.10;99.90;;;;;;4951904;28;20027;-80
2021/05/14 08:18:14;;;;;;;28.77;22.40;;;13.30;99.90;;;;;;4984224;28;20046;-80
2021/05/14 08:20:41;;;;;;;30.58;23.27;;;13.10;99.90;;;;;;4984091;28;20507;-80
2021/05/14 08:23:08;;;;;;;32.15;23.85;;;13.30;99.90;;;;;;4968254;28;20366;-80
2021/05/14 08:25:35;;;;;;;28.05;22.27;;;13.30;99.90;;;;;;4977954;28;20042;-80
2021/05/14 08:28:01;;;;;;;27.73;21.83;;;13.30;99.90;;;;;;4983767;28;20030;-80
2021/05/14 08:30:28;;;;;;;25.42;20.75;;;13.50;99.90;;;;;;4983961;28;20142;-80
2021/05/14 08:32:55;;;;;;;26.00;21.15;;;13.60;99.90;;;;;;4984108;28;20131;-79
2021/05/14 08:35:20;;;;;;;28.15;22.00;;;13.40;99.90;;;;;;4967387;28;20018;-79
2021/05/14 08:37:47;;;;;;;25.45;21.33;;;13.60;99.90;;;;;;4967514;28;20097;-79
2021/05/14 08:40:14;;;;;;;25.13;19.88;;;13.90;99.90;;;;;;4983739;28;20098;-80
2021/05/14 08:42:41;;;;;;;25.52;19.88;;;13.90;99.90;;;;;;4983887;28;20054;-79
2021/05/14 08:45:14;;;;;;;28.73;22.90;;;13.80;99.90;;;;;;4996739;28;20053;-80
2021/05/14 08:47:41;;;;;;;31.23;23.48;;;13.40;99.90;;;;;;5023941;28;20064;-79
2021/05/14 08:50:10;;;;;;;26.40;21.50;;;13.70;99.90;;;;;;5023874;28;20044;-79
2021/05/14 08:52:41;;;;;;;25.50;20.63;;;14.10;99.90;;;;;;5007347;28;20502;-79
2021/05/14 08:55:08;;;;;;;28.77;22.30;;;14.30;99.90;;;;;;5023873;28;20087;-81
2021/05/14 08:57:34;;;;;;;21.55;18.20;;;14.10;99.90;;;;;;5007059;28;20042;-82
2021/05/14 09:00:00;;;;;;;24.65;19.65;;;14.10;99.90;;;;;;5013614;28;20026;-79
2021/05/14 09:02:26;;;;;;;27.13;20.70;;;13.90;99.90;;;;;;5029360;28;20037;-78
2021/05/14 09:04:51;;;;;;;22.95;19.63;;;14.00;99.90;;;;;;5026653;28;20031;-80
2021/05/14 09:07:19;;;;;;;22.83;17.85;;;14.40;99.90;;;;;;5029299;28;20653;-80
2021/05/14 09:10:09;;;;;;;24.83;19.92;;;14.50;99.90;;;;;;5033736;28;20027;-79
2021/05/14 09:12:37;;;;;;;25.23;20.30;;;14.60;99.90;;;;;;5004199;28;20121;-79
2021/05/14 09:15:26;;;;;;;25.70;21.00;;;14.20;99.90;;;;;;5024356;28;20455;-79
2021/05/14 09:18:08;;;;;;;25.65;19.90;;;14.30;99.90;;;;;;5040297;28;20076;-80
2021/05/14 09:20:53;;;;;;;24.58;20.10;;;13.90;99.90;;;;;;5040233;28;20041;-79
2021/05/14 09:23:18;;;;;;;21.88;17.40;;;13.90;99.90;;;;;;5007471;28;20496;-79
2021/05/14 09:25:56;;;;;;;26.85;21.83;;;14.10;99.90;;;;;;5007303;28;20097;-80
2021/05/14 09:28:43;;;;;;;27.48;21.92;;;13.80;99.90;;;;;;5024056;28;20041;-80
2021/05/14 09:31:24;;;;;;;29.88;21.98;;;13.60;99.90;;;;;;5026517;28;20034;-79
2021/05/14 09:33:51;;;;;;;23.77;19.17;;;13.70;99.90;;;;;;5011226;28;20041;-80
2021/05/14 09:36:31;;;;;;;25.10;19.75;;;13.80;99.90;;;;;;5011002;28;20026;-80
2021/05/14 09:39:02;;;;;;;21.38;18.05;;;13.60;99.90;;;;;;5006306;28;20058;-79
2021/05/14 09:41:36;;;;;;;28.80;21.95;;;13.80;99.90;;;;;;5027239;28;20034;-78
2021/05/14 09:44:18;;;;;;;22.63;18.60;;;13.60;99.90;;;;;;5043671;28;20033;-80
2021/05/14 09:46:46;;;;;;;29.75;20.80;;;13.70;99.90;;;;;;5010313;28;20054;-79
2021/05/14 09:49:17;;;;;;;31.73;22.52;;;13.60;99.90;;;;;;5027402;28;20030;-80
2021/05/14 09:52:00;;;;;;;31.92;23.42;;;13.70;99.90;;;;;;5027449;28;20060;-80
2021/05/14 09:54:44;;;;;;;30.08;21.63;;;13.80;99.90;;;;;;5027336;28;20417;-80
2021/05/14 09:57:30;;;;;;;26.92;19.98;;;14.00;99.90;;;;;;5027331;28;20072;-79
2021/05/14 10:00:05;;;;;;;29.13;22.30;;;13.90;99.90;;;;;;5010955;28;20034;-80
2021/05/14 10:02:40;;;;;;;32.40;22.75;;;13.60;99.90;;;;;;5010948;28;20096;-79
2021/05/14 10:05:15;;;;;;;33.95;23.33;;;13.90;99.90;;;;;;5027868;28;20093;-80
2021/05/14 10:07:42;;;;;;;32.33;23.63;;;13.80;99.90;;;;;;5010350;28;20036;-79
2021/05/14 10:10:09;;;;;;;30.80;24.70;;;13.80;99.90;;;;;;5028369;28;20038;-79
2021/05/14 10:12:36;;;;;;;31.65;24.42;;;13.60;99.90;;;;;;5043171;28;20080;-79
2021/05/14 10:15:06;;;;;;;28.17;22.48;;;13.90;99.90;;;;;;5043251;28;20036;-79
2021/05/14 10:17:31;;;;;;;27.92;21.38;;;14.80;99.90;;;;;;5042911;28;20057;-78
2021/05/14 10:19:59;;;;;;;25.08;19.83;;;15.20;99.90;;;;;;5043319;28;20038;-79
2021/05/14 10:22:27;;;;;;;24.17;17.50;;;14.90;99.90;;;;;;5043096;28;20037;-79
2021/05/14 10:24:57;;;;;;;29.92;23.65;;;14.90;99.90;;;;;;5042861;28;20037;-79
2021/05/14 10:27:26;;;;;;;29.98;22.50;;;14.70;99.90;;;;;;5010088;28;20096;-79
2021/05/14 10:29:56;;;;;;;23.90;18.50;;;15.00;99.90;;;;;;5026794;28;20038;-79
2021/05/14 10:32:44;;;;;;;24.17;19.35;;;15.40;99.90;;;;;;5026414;28;20034;-80
2021/05/14 10:35:27;;;;;;;25.70;19.63;;;15.20;99.90;;;;;;5026549;28;20100;-79
2021/05/14 10:38:04;;;;;;;22.13;16.95;;;15.20;99.90;;;;;;5012689;28;20089;-80
2021/05/14 10:40:37;;;;;;;24.75;20.02;;;15.60;99.90;;;;;;5006908;28;20509;-78
2021/05/14 10:43:27;;;;;;;21.45;17.17;;;15.30;99.90;;;;;;5005459;28;20030;-80
2021/05/14 10:46:00;;;;;;;;;;;15.90;99.90;;;;;;5012704;28;20101;-79
2021/05/14 10:48:27;;;;;;;25.40;18.92;;;15.60;99.90;;;;;;5024139;28;19925;-79
2021/05/14 10:50:57;;;;;;;22.85;17.50;;;15.40;99.90;;;;;;5007969;28;20101;-80
2021/05/14 10:53:46;;;;;;;20.60;17.15;;;15.50;99.90;;;;;;5007758;28;20050;-80
2021/05/14 10:56:12;;;;;;;21.58;17.23;;;15.30;99.90;;;;;;5025969;28;20036;-81
2021/05/14 10:58:37;;;;;;;21.38;17.30;;;15.00;99.90;;;;;;5025875;28;20060;-80
2021/05/14 11:01:04;;;;;;;18.10;14.50;;;14.80;99.90;;;;;;5027420;28;20094;-80
2021/05/14 11:03:34;;;;;;;20.95;16.65;;;14.80;99.90;;;;;;5025723;28;20103;-79
2021/05/14 11:06:10;;;;;;;23.50;16.20;;;15.00;99.90;;;;;;5025435;28;20030;-80
2021/05/14 11:08:36;;;;;;;21.15;16.42;;;15.10;99.90;;;;;;5006302;28;20475;-80
2021/05/14 11:11:11;;;;;;;19.70;13.98;;;15.20;99.90;;;;;;5022804;28;20034;-80
2021/05/14 11:13:45;;;;;;;18.45;14.02;;;15.30;99.90;;;;;;5023123;28;20069;-81
2021/05/14 11:16:30;;;;;;;15.80;11.57;;;15.20;99.90;;;;;;5042026;28;20715;-80
2021/05/14 11:18:56;;;;;;;17.67;12.27;;;14.90;99.90;;;;;;5026705;28;20046;-80
2021/05/14 11:21:22;;;;;;;22.08;15.45;;;14.60;99.90;;;;;;5042113;28;20064;-80
2021/05/14 11:24:05;;;;;;;18.15;13.70;;;14.60;99.90;;;;;;5023325;28;20060;-81
2021/05/14 11:26:31;;;;;;;17.45;12.20;;;14.90;99.90;;;;;;5006664;28;20033;-79
2021/05/14 11:28:57;;;;;;;15.70;11.30;;;15.00;99.90;;;;;;5008382;28;20094;-80
2021/05/14 11:31:40;;;;;;;14.63;11.00;;;15.20;99.90;;;;;;5026282;28;20022;-80
2021/05/14 11:37:43;;;;;;;17.60;12.13;;;15.20;99.90;;;;;;5005146;28;20049;-80
2021/05/14 11:40:15;;;;;;;13.25;9.88;;;15.20;99.90;;;;;;4969911;28;20147;-80
2021/05/14 11:42:44;;;;;;;13.05;9.35;;;15.40;99.90;;;;;;4952797;28;20053;-79
2021/05/14 11:45:21;;;;;;;14.98;11.05;;;16.00;99.90;;;;;;4968729;28;20035;-79
2021/05/14 11:47:50;;;;;;;18.38;10.50;;;15.80;99.90;;;;;;4985443;28;20092;-80
2021/05/14 11:50:23;;;;;;;10.25;8.75;;;15.30;99.90;;;;;;4988402;28;20034;-80
2021/05/14 11:52:48;;;;;;;10.15;7.82;;;15.60;99.90;;;;;;4987761;28;20041;-81
2021/05/14 11:55:15;;;;;;;14.63;9.68;;;15.90;99.90;;;;;;4988341;28;20026;-81
2021/05/14 11:57:49;;;;;;;12.82;9.82;;;16.00;99.90;;;;;;4988330;28;20057;-80
2021/05/14 12:00:16;;;;;;;10.45;7.88;;;15.90;99.90;;;;;;5004470;28;20034;-80
2021/05/14 12:02:45;;;;;;;8.50;6.22;;;16.30;99.90;;;;;;4988011;28;20577;-79
2021/05/14 12:05:15;;;;;;;12.05;8.82;;;16.30;99.90;;;;;;4987963;28;20026;-81
2021/05/14 12:07:43;;;;;;;10.20;7.45;;;16.10;99.90;;;;;;5002911;28;20110;-83
2021/05/14 12:10:14;;;;;;;9.85;7.45;;;16.20;99.90;;;;;;5021494;28;20041;-80
2021/05/14 12:12:42;;;;;;;8.30;6.00;;;16.10;99.90;;;;;;4987621;28;20085;-79
2021/05/14 12:15:11;;;;;;;9.35;7.75;;;16.30;99.90;;;;;;5006659;28;20041;-80
2021/05/14 12:17:38;;;;;;;9.93;5.72;;;16.00;99.90;;;;;;4999127;28;20538;-81
2021/05/14 12:20:13;;;;;;;10.30;7.15;;;16.80;99.90;;;;;;4987730;28;20043;-80
2021/05/14 12:22:44;;;;;;;6.45;5.25;;;16.90;99.90;;;;;;4977663;28;20047;-81
2021/05/14 12:25:10;;;;;;;7.95;5.35;;;16.90;99.90;;;;;;4968310;28;20053;-83
2021/05/14 12:27:36;;;;;;;6.00;4.60;;;16.80;99.90;;;;;;4983941;28;20348;-79
2021/05/14 12:30:02;;;;;;;8.05;5.10;;;17.10;99.90;;;;;;4984040;28;20061;-80
2021/05/14 12:32:28;;;;;;;6.00;5.40;;;16.90;99.90;;;;;;4983633;28;20038;-80
2021/05/14 12:34:57;;;;;;;6.25;5.60;;;16.70;99.90;;;;;;4983200;28;20042;-80
2021/05/14 12:37:23;;;;;;;5.72;5.18;;;16.30;99.90;;;;;;4966612;28;20119;-81
2021/05/14 12:39:49;;;;;;;5.25;3.90;;;16.20;99.90;;;;;;4967718;28;20043;-80
2021/05/14 12:42:28;;;;;;;5.82;4.32;;;16.50;99.90;;;;;;4967161;28;20129;-79
2021/05/14 12:44:55;;;;;;;6.37;3.90;;;16.60;99.90;;;;;;4994599;28;20069;-81
2021/05/14 12:47:24;;;;;;;6.68;4.72;;;16.80;99.90;;;;;;5003152;28;20066;-81
2021/05/14 12:50:05;;;;;;;7.95;5.88;;;16.20;99.90;;;;;;5007572;28;20076;-80